createdAt,value
2022-12-23T00:01:00.376Z,99541.60
2022-12-23T00:02:32.344Z,99540.20
2022-12-23T00:04:04.461Z,99546.00
2022-12-23T00:05:38.756Z,99548.60
2022-12-23T00:07:10.533Z,99542.00
2022-12-23T00:08:43.238Z,99545.80
2022-12-23T00:10:14.985Z,99549.00
2022-12-23T00:12:05.299Z,99547.80
2022-12-23T00:13:55.778Z,99544.20
2022-12-23T00:15:27.494Z,99543.40
2022-12-23T00:16:59.259Z,99542.60
2022-12-23T00:18:31.228Z,99547.20
2022-12-23T00:20:05.646Z,99541.60
2022-12-23T00:21:37.520Z,99539.00
2022-12-23T00:23:09.176Z,99538.20
2022-12-23T00:24:40.925Z,99535.80
2022-12-23T00:26:25.662Z,99541.20
2022-12-23T00:28:03.161Z,99542.00
2022-12-23T00:29:34.852Z,99539.20
2022-12-23T00:31:07.892Z,99534.80
2022-12-23T00:32:39.579Z,99536.60
2022-12-23T00:34:12.684Z,99540.20
2022-12-23T00:35:45.866Z,99536.60
2022-12-23T00:37:17.627Z,99536.00
2022-12-23T00:39:08.328Z,99536.80
2022-12-23T00:40:58.505Z,99540.20
2022-12-23T00:42:48.590Z,99542.20
2022-12-23T00:44:20.777Z,99532.40
2022-12-23T00:45:52.743Z,99537.20
2022-12-23T00:47:43.293Z,99536.80
2022-12-23T00:49:36.693Z,99532.80
2022-12-23T00:51:08.472Z,99534.00
2022-12-23T00:52:40.218Z,99533.40
2022-12-23T00:56:09.030Z,99532.60
2022-12-23T00:57:40.152Z,99535.20
2022-12-23T00:59:11.309Z,99536.80
2022-12-23T01:01:02.973Z,99540.40
2022-12-23T01:02:53.046Z,99542.60
2022-12-23T01:04:43.318Z,99544.60
2022-12-23T01:06:15.436Z,99549.00
2022-12-23T01:07:46.681Z,99546.80
2022-12-23T01:09:17.814Z,99544.80
2022-12-23T01:10:48.978Z,99548.80
2022-12-23T01:12:20.222Z,99551.00
2022-12-23T01:13:51.423Z,99551.20
2022-12-23T01:15:23.443Z,99547.80
2022-12-23T01:16:54.584Z,99554.00
2022-12-23T01:18:25.716Z,99562.40
2022-12-23T01:19:56.876Z,99567.80
2022-12-23T01:21:27.952Z,99565.40
2022-12-23T01:22:59.175Z,99558.60
2022-12-23T01:24:32.085Z,99568.20
2022-12-23T01:26:06.447Z,99566.80
2022-12-23T01:27:37.626Z,99570.00
2022-12-23T01:29:08.821Z,99567.00
2022-12-23T01:30:40.026Z,99575.00
2022-12-23T01:32:11.287Z,99573.00
2022-12-23T01:33:42.496Z,99571.60
2022-12-23T01:35:13.801Z,99580.20
2022-12-23T01:36:44.877Z,99575.00
2022-12-23T01:38:16.435Z,99582.80
2022-12-23T01:39:47.594Z,99582.00
2022-12-23T01:41:45.778Z,99588.60
2022-12-23T01:43:19.559Z,99590.60
2022-12-23T01:44:54.960Z,99593.40
2022-12-23T01:46:26.112Z,99596.60
2022-12-23T01:48:00.125Z,99599.60
2022-12-23T01:49:31.329Z,99598.80
2022-12-23T01:51:11.138Z,99598.40
2022-12-23T01:53:16.764Z,99593.80
2022-12-23T01:54:48.318Z,99594.00
2022-12-23T01:56:23.493Z,99592.20
2022-12-23T01:58:03.982Z,99595.20
2022-12-23T01:59:54.172Z,99591.00
2022-12-23T02:01:45.046Z,99596.40
2022-12-23T02:03:35.101Z,99598.00
2022-12-23T02:05:07.761Z,99596.20
2022-12-23T02:07:04.026Z,99597.20
2022-12-23T02:08:53.911Z,99598.00
2022-12-23T02:10:50.645Z,99600.00
2022-12-23T02:13:06.065Z,99596.60
2022-12-23T02:15:46.159Z,99600.40
2022-12-23T02:18:04.196Z,99602.80
2022-12-23T02:19:55.326Z,99603.00
2022-12-23T02:21:47.408Z,99607.40
2022-12-23T02:24:02.348Z,99602.20
2022-12-23T02:25:58.853Z,99608.80
2022-12-23T02:27:46.570Z,99610.40
2022-12-23T02:29:59.087Z,99611.40
2022-12-23T02:31:44.975Z,99617.40
2022-12-23T02:34:10.590Z,99618.40
2022-12-23T02:36:13.886Z,99614.00
2022-12-23T02:38:27.021Z,99622.40
2022-12-23T02:40:15.119Z,99621.60
2022-12-23T02:42:08.940Z,99621.00
2022-12-23T02:43:49.804Z,99620.80
2022-12-23T02:45:43.907Z,99619.40
2022-12-23T02:47:28.438Z,99624.40
2022-12-23T02:49:17.429Z,99629.80
2022-12-23T02:50:52.873Z,99631.00
2022-12-23T02:52:31.670Z,99638.00
2022-12-23T02:54:10.894Z,99639.60
2022-12-23T02:55:47.990Z,99639.40
2022-12-23T02:57:26.650Z,99639.80
2022-12-23T02:59:15.157Z,99641.80
2022-12-23T03:00:49.173Z,99644.80
2022-12-23T03:02:20.581Z,99647.40
2022-12-23T03:03:52.162Z,99652.20
2022-12-23T03:05:34.290Z,99655.20
2022-12-23T03:07:08.128Z,99653.60
2022-12-23T03:08:45.071Z,99655.60
2022-12-23T03:10:34.870Z,99654.00
2022-12-23T03:12:39.795Z,99658.80
2022-12-23T03:15:04.581Z,99661.20
2022-12-23T03:17:02.478Z,99665.20
2022-12-23T03:18:56.715Z,99661.20
2022-12-23T03:21:26.119Z,99664.40
2022-12-23T03:23:26.333Z,99660.00
2022-12-23T03:25:29.951Z,99671.80
2022-12-23T03:27:39.169Z,99674.00
2022-12-23T03:29:20.219Z,99677.40
2022-12-23T03:30:59.506Z,99681.20
2022-12-23T03:33:04.041Z,99685.40
2022-12-23T03:34:41.275Z,99689.00
2022-12-23T03:36:37.645Z,99689.40
2022-12-23T03:38:12.454Z,99690.00
2022-12-23T03:39:54.535Z,99691.60
2022-12-23T03:41:37.165Z,99692.20
2022-12-23T03:43:25.282Z,99690.60
2022-12-23T03:47:16.306Z,99689.00
2022-12-23T03:48:58.992Z,99691.60
2022-12-23T03:50:32.201Z,99687.20
2022-12-23T03:52:20.772Z,99691.20
2022-12-23T03:54:14.667Z,99694.80
2022-12-23T03:55:56.751Z,99691.60
2022-12-23T03:57:42.548Z,99691.60
2022-12-23T03:59:23.554Z,99688.80
2022-12-23T04:01:04.720Z,99689.80
2022-12-23T04:02:53.384Z,99689.20
2022-12-23T04:04:38.107Z,99692.20
2022-12-23T04:06:15.298Z,99687.20
2022-12-23T04:08:01.022Z,99681.80
2022-12-23T04:09:34.354Z,99684.80
2022-12-23T04:11:06.095Z,99688.00
2022-12-23T04:12:39.470Z,99690.60
2022-12-23T04:14:16.787Z,99690.00
2022-12-23T04:15:47.998Z,99696.00
2022-12-23T04:17:19.991Z,99693.80
2022-12-23T04:18:51.077Z,99697.80
2022-12-23T04:20:23.055Z,99695.00
2022-12-23T04:21:57.144Z,99698.20
2022-12-23T04:23:28.630Z,99697.60
2022-12-23T04:24:59.645Z,99693.20
2022-12-23T04:26:30.639Z,99694.40
2022-12-23T04:28:01.864Z,99694.80
2022-12-23T04:29:33.093Z,99695.00
2022-12-23T04:31:04.268Z,99695.40
2022-12-23T04:32:35.346Z,99699.00
2022-12-23T04:34:06.360Z,99693.80
2022-12-23T04:35:37.995Z,99696.00
2022-12-23T04:37:10.267Z,99698.40
2022-12-23T04:38:41.333Z,99693.20
2022-12-23T04:40:12.990Z,99689.80
2022-12-23T04:41:44.006Z,99696.20
2022-12-23T04:43:15.056Z,99689.80
2022-12-23T04:44:46.061Z,99690.20
2022-12-23T04:46:17.269Z,99688.20
2022-12-23T04:47:48.337Z,99694.00
2022-12-23T04:49:19.382Z,99698.20
2022-12-23T04:50:50.825Z,99702.60
2022-12-23T04:52:22.960Z,99703.00
2022-12-23T04:53:54.083Z,99708.40
2022-12-23T04:55:25.142Z,99708.60
2022-12-23T04:56:56.239Z,99706.20
2022-12-23T04:58:27.349Z,99709.20
2022-12-23T04:59:58.388Z,99713.20
2022-12-23T05:01:29.574Z,99715.80
2022-12-23T05:03:00.856Z,99715.60
2022-12-23T05:04:32.713Z,99715.20
2022-12-23T05:06:05.628Z,99711.00
2022-12-23T05:07:36.691Z,99709.80
2022-12-23T05:09:08.414Z,99709.40
2022-12-23T05:10:39.528Z,99713.40
2022-12-23T05:12:10.548Z,99714.40
2022-12-23T05:13:41.588Z,99712.00
2022-12-23T05:15:12.605Z,99718.40
2022-12-23T05:16:43.847Z,99716.40
2022-12-23T05:18:15.983Z,99719.60
2022-12-23T05:19:47.004Z,99721.00
2022-12-23T05:21:18.155Z,99720.40
2022-12-23T05:22:49.250Z,99721.20
2022-12-23T05:24:20.277Z,99722.60
2022-12-23T05:25:53.578Z,99722.40
2022-12-23T05:27:24.616Z,99724.00
2022-12-23T05:28:55.813Z,99718.00
2022-12-23T05:30:26.939Z,99725.80
2022-12-23T05:31:58.066Z,99717.60
2022-12-23T05:33:29.717Z,99716.20
2022-12-23T05:35:00.855Z,99709.40
2022-12-23T05:36:32.012Z,99708.60
2022-12-23T05:38:03.527Z,99701.80
2022-12-23T05:39:34.651Z,99707.40
2022-12-23T05:41:06.160Z,99710.80
2022-12-23T05:42:37.184Z,99709.20
2022-12-23T05:44:08.256Z,99714.00
2022-12-23T05:45:39.637Z,99718.00
2022-12-23T05:47:10.934Z,99717.80
2022-12-23T05:48:42.005Z,99716.80
2022-12-23T05:50:13.140Z,99713.00
2022-12-23T05:51:44.277Z,99716.00
2022-12-23T05:53:15.325Z,99714.00
2022-12-23T05:54:46.510Z,99718.40
2022-12-23T05:56:17.607Z,99717.60
2022-12-23T05:57:48.660Z,99716.20
2022-12-23T05:59:19.695Z,99727.20
2022-12-23T06:00:50.776Z,99729.60
2022-12-23T06:02:22.192Z,99736.20
2022-12-23T06:03:53.567Z,99736.60
2022-12-23T06:05:24.832Z,99740.60
2022-12-23T06:06:55.920Z,99745.60
2022-12-23T06:08:26.919Z,99749.40
2022-12-23T06:09:58.048Z,99755.00
2022-12-23T06:11:29.225Z,99756.00
2022-12-23T06:13:00.307Z,99759.20
2022-12-23T06:14:31.410Z,99761.20
2022-12-23T06:16:02.770Z,99761.40
2022-12-23T06:17:33.929Z,99769.60
2022-12-23T06:19:05.003Z,99767.40
2022-12-23T06:20:36.142Z,99772.60
2022-12-23T06:22:07.280Z,99773.40
2022-12-23T06:23:38.380Z,99771.00
2022-12-23T06:25:09.577Z,99771.40
2022-12-23T06:26:41.970Z,99766.20
2022-12-23T06:28:13.101Z,99769.20
2022-12-23T06:29:44.452Z,99768.20
2022-12-23T06:31:15.918Z,99772.60
2022-12-23T06:32:49.953Z,99766.20
2022-12-23T06:34:21.076Z,99769.40
2022-12-23T06:35:52.191Z,99773.00
2022-12-23T06:37:23.208Z,99767.40
2022-12-23T06:38:54.207Z,99762.40
2022-12-23T06:40:25.305Z,99759.00
2022-12-23T06:41:56.324Z,99758.00
2022-12-23T06:43:27.465Z,99756.40
2022-12-23T06:44:58.471Z,99752.80
2022-12-23T06:46:29.693Z,99755.60
2022-12-23T06:48:00.863Z,99751.60
2022-12-23T06:49:32.002Z,99758.60
2022-12-23T06:51:03.288Z,99754.60
2022-12-23T06:52:34.298Z,99754.20
2022-12-23T06:54:05.387Z,99749.00
2022-12-23T06:55:36.517Z,99748.60
2022-12-23T06:57:07.557Z,99748.80
2022-12-23T06:58:38.867Z,99748.20
2022-12-23T07:00:11.060Z,99749.40
2022-12-23T07:01:42.214Z,99744.80
2022-12-23T07:03:13.607Z,99746.00
2022-12-23T07:04:44.763Z,99748.60
2022-12-23T07:06:15.871Z,99751.20
2022-12-23T07:07:46.977Z,99749.60
2022-12-23T07:09:18.034Z,99753.40
2022-12-23T07:10:49.147Z,99751.40
2022-12-23T07:12:20.286Z,99755.00
2022-12-23T07:13:51.309Z,99762.00
2022-12-23T07:15:22.362Z,99765.80
2022-12-23T07:16:53.577Z,99767.80
2022-12-23T07:18:25.553Z,99774.40
2022-12-23T07:19:56.686Z,99776.60
2022-12-23T07:21:29.792Z,99780.80
2022-12-23T07:23:01.020Z,99777.20
2022-12-23T07:24:32.159Z,99782.80
2022-12-23T07:26:03.376Z,99786.00
2022-12-23T07:27:34.907Z,99795.00
2022-12-23T07:29:06.009Z,99794.80
2022-12-23T07:30:37.016Z,99795.40
2022-12-23T07:32:08.296Z,99801.40
2022-12-23T07:33:39.575Z,99801.00
2022-12-23T07:35:10.611Z,99812.60
2022-12-23T07:36:41.771Z,99823.40
2022-12-23T07:38:13.006Z,99824.80
2022-12-23T07:39:44.072Z,99828.40
2022-12-23T07:41:15.119Z,99824.40
2022-12-23T07:42:49.680Z,99826.80
2022-12-23T07:44:20.794Z,99828.40
2022-12-23T07:45:59.197Z,99836.80
2022-12-23T07:47:31.490Z,99834.60
2022-12-23T07:49:02.779Z,99834.80
2022-12-23T07:50:34.079Z,99838.20
2022-12-23T07:52:05.133Z,99833.80
2022-12-23T07:53:36.274Z,99834.60
2022-12-23T07:55:08.008Z,99834.60
2022-12-23T07:56:42.048Z,99832.40
2022-12-23T07:58:13.144Z,99834.00
2022-12-23T07:59:44.223Z,99830.80
2022-12-23T08:01:16.224Z,99832.40
2022-12-23T08:02:48.177Z,99833.20
2022-12-23T08:04:21.648Z,99831.00
2022-12-23T08:06:08.778Z,99837.60
2022-12-23T08:07:40.417Z,99837.40
2022-12-23T08:09:11.481Z,99830.20
2022-12-23T08:10:48.031Z,99826.20
2022-12-23T08:12:19.843Z,99823.20
2022-12-23T08:13:52.160Z,99819.80
2022-12-23T08:15:23.169Z,99820.20
2022-12-23T08:16:54.276Z,99821.20
2022-12-23T08:18:28.658Z,99818.80
2022-12-23T08:19:59.762Z,99818.40
2022-12-23T08:21:30.806Z,99814.40
2022-12-23T08:23:01.841Z,99817.00
2022-12-23T08:24:32.881Z,99810.80
2022-12-23T08:26:18.969Z,99817.40
2022-12-23T08:27:53.457Z,99822.40
2022-12-23T08:29:24.579Z,99824.00
2022-12-23T08:31:23.359Z,99819.40
2022-12-23T08:32:57.290Z,99819.80
2022-12-23T08:34:28.382Z,99821.60
2022-12-23T08:35:59.487Z,99825.00
2022-12-23T08:37:30.578Z,99824.00
2022-12-23T08:39:07.211Z,99826.80
2022-12-23T08:40:41.174Z,99823.00
2022-12-23T08:42:12.250Z,99824.00
2022-12-23T08:43:44.470Z,99820.40
2022-12-23T08:45:18.207Z,99817.60
2022-12-23T08:46:49.284Z,99815.20
2022-12-23T08:48:20.464Z,99813.40
2022-12-23T08:49:51.707Z,99819.00
2022-12-23T08:51:25.830Z,99815.60
2022-12-23T08:52:56.941Z,99813.00
2022-12-23T08:54:28.791Z,99803.00
2022-12-23T08:56:13.345Z,99806.00
2022-12-23T08:57:44.379Z,99809.80
2022-12-23T08:59:19.681Z,99817.20
2022-12-23T09:00:51.353Z,99815.20
2022-12-23T09:02:22.524Z,99823.00
2022-12-23T09:03:54.018Z,99826.40
2022-12-23T09:05:25.138Z,99828.60
2022-12-23T09:06:56.313Z,99830.00
2022-12-23T09:08:27.312Z,99830.20
2022-12-23T09:09:58.406Z,99826.20
2022-12-23T09:11:30.126Z,99821.40
2022-12-23T09:13:01.163Z,99823.40
2022-12-23T09:14:32.204Z,99825.40
2022-12-23T09:16:04.753Z,99823.20
2022-12-23T09:17:36.064Z,99819.40
2022-12-23T09:19:07.507Z,99812.00
2022-12-23T09:20:38.649Z,99809.80
2022-12-23T09:22:09.805Z,99809.80
2022-12-23T09:23:41.270Z,99813.40
2022-12-23T09:25:13.522Z,99811.40
2022-12-23T09:26:44.533Z,99813.80
2022-12-23T09:28:15.760Z,99813.80
2022-12-23T09:29:46.877Z,99820.20
2022-12-23T09:31:21.159Z,99818.20
2022-12-23T09:32:52.308Z,99819.00
2022-12-23T09:34:26.306Z,99818.80
2022-12-23T09:36:01.887Z,99812.00
2022-12-23T09:37:33.311Z,99807.40
2022-12-23T09:39:07.060Z,99809.40
2022-12-23T09:40:40.492Z,99817.00
2022-12-23T09:43:13.555Z,99809.00
2022-12-23T09:45:10.728Z,99804.60
2022-12-23T09:46:54.293Z,99804.00
2022-12-23T09:48:35.284Z,99797.40
2022-12-23T09:50:28.785Z,99787.60
2022-12-23T09:52:06.056Z,99788.00
2022-12-23T09:54:16.902Z,99791.80
2022-12-23T09:55:55.902Z,99786.40
2022-12-23T09:57:41.592Z,99782.00
2022-12-23T09:59:51.543Z,99779.40
2022-12-23T10:01:44.587Z,99771.00
2022-12-23T10:03:28.274Z,99780.40
2022-12-23T10:05:08.357Z,99781.40
2022-12-23T10:06:40.805Z,99785.20
2022-12-23T10:08:28.489Z,99787.00
2022-12-23T10:10:16.311Z,99780.60
2022-12-23T10:11:52.661Z,99784.20
2022-12-23T10:13:28.870Z,99783.40
2022-12-23T10:15:04.108Z,99779.20
2022-12-23T10:16:43.896Z,99782.00
2022-12-23T10:18:25.990Z,99784.60
2022-12-23T10:20:03.674Z,99788.00
2022-12-23T10:21:47.883Z,99784.40
2022-12-23T10:23:36.632Z,99783.00
2022-12-23T10:25:45.674Z,99779.20
2022-12-23T10:27:27.157Z,99770.20
2022-12-23T10:29:21.134Z,99771.00
2022-12-23T10:33:08.788Z,99760.00
2022-12-23T10:35:00.632Z,99748.00
2022-12-23T10:36:46.774Z,99732.60
2022-12-23T10:38:37.351Z,99729.20
2022-12-23T10:40:26.542Z,99731.00
2022-12-23T10:42:12.885Z,99729.80
2022-12-23T10:44:22.299Z,99731.00
2022-12-23T10:46:27.852Z,99723.60
2022-12-23T10:48:26.708Z,99709.40
2022-12-23T10:50:49.257Z,99697.40
2022-12-23T10:52:26.816Z,99696.80
2022-12-23T10:54:27.570Z,99692.80
2022-12-23T10:55:59.927Z,99687.40
2022-12-23T10:57:32.036Z,99692.20
2022-12-23T10:59:06.490Z,99695.40
2022-12-23T11:00:42.949Z,99701.00
2022-12-23T11:02:14.321Z,99704.00
2022-12-23T11:03:53.738Z,99701.00
2022-12-23T11:05:28.778Z,99705.00
2022-12-23T11:07:41.655Z,99701.80
2022-12-23T11:08:55.838Z,99708.00
2022-12-23T11:10:32.356Z,99703.60
2022-12-23T11:12:07.856Z,99692.20
2022-12-23T11:13:40.690Z,99695.60
2022-12-23T11:15:28.788Z,99682.00
2022-12-23T11:17:00.099Z,99678.20
2022-12-23T11:18:31.071Z,99677.20
2022-12-23T11:20:20.435Z,99679.80
2022-12-23T11:22:00.254Z,99676.00
2022-12-23T11:23:35.750Z,99673.40
2022-12-23T11:25:35.900Z,99670.60
2022-12-23T11:27:15.329Z,99662.40
2022-12-23T11:28:56.264Z,99658.40
2022-12-23T11:30:30.399Z,99651.20
2022-12-23T11:32:14.319Z,99649.60
2022-12-23T11:33:59.155Z,99648.60
2022-12-23T11:35:34.920Z,99657.00
2022-12-23T11:37:07.668Z,99654.60
2022-12-23T11:38:56.715Z,99651.60
2022-12-23T11:40:36.867Z,99655.00
2022-12-23T11:42:26.048Z,99660.80
2022-12-23T11:44:21.948Z,99651.40
2022-12-23T11:46:27.231Z,99645.20
2022-12-23T11:47:58.351Z,99641.40
2022-12-23T11:49:33.278Z,99633.00
2022-12-23T11:51:04.487Z,99636.20
2022-12-23T11:52:35.516Z,99638.80
2022-12-23T11:54:17.358Z,99639.20
2022-12-23T11:56:12.819Z,99634.80
2022-12-23T11:57:48.005Z,99633.20
2022-12-23T11:59:38.913Z,99627.20
2022-12-23T12:01:19.558Z,99615.00
2022-12-23T12:02:57.933Z,99612.80
2022-12-23T12:04:34.819Z,99609.60
2022-12-23T12:06:06.892Z,99602.80
2022-12-23T12:07:43.141Z,99603.80
2022-12-23T12:09:15.977Z,99594.40
2022-12-23T12:10:53.060Z,99592.20
2022-12-23T12:12:25.645Z,99586.60
2022-12-23T12:14:04.278Z,99586.60
2022-12-23T12:16:00.794Z,99585.40
2022-12-23T12:17:46.643Z,99583.00
2022-12-23T12:19:29.529Z,99573.60
2022-12-23T12:21:08.862Z,99564.20
2022-12-23T12:22:53.996Z,99559.80
2022-12-23T12:24:30.987Z,99554.40
2022-12-23T12:26:32.020Z,99559.20
2022-12-23T12:29:28.844Z,99546.00
2022-12-23T12:31:27.625Z,99544.00
2022-12-23T12:33:06.182Z,99544.40
2022-12-23T12:35:00.876Z,99539.40
2022-12-23T12:36:50.783Z,99528.60
2022-12-23T12:38:35.279Z,99520.40
2022-12-23T12:40:31.799Z,99524.20
2022-12-23T12:42:22.892Z,99525.60
2022-12-23T12:44:15.823Z,99524.00
2022-12-23T12:46:05.017Z,99520.60
2022-12-23T12:47:58.469Z,99518.20
2022-12-23T12:49:56.725Z,99515.00
2022-12-23T12:52:06.662Z,99514.60
2022-12-23T12:54:06.168Z,99515.40
2022-12-23T12:55:46.300Z,99511.20
2022-12-23T12:57:23.972Z,99507.20
2022-12-23T12:58:55.925Z,99503.80
2022-12-23T13:00:27.978Z,99507.60
2022-12-23T13:02:11.891Z,99503.60
2022-12-23T13:04:04.805Z,99502.00
2022-12-23T13:06:07.706Z,99500.20
2022-12-23T13:07:39.485Z,99492.00
2022-12-23T13:10:03.761Z,99489.40
2022-12-23T13:11:56.392Z,99476.80
2022-12-23T13:14:06.163Z,99472.20
2022-12-23T13:15:46.989Z,99472.40
2022-12-23T13:17:35.089Z,99477.00
2022-12-23T13:19:22.066Z,99472.00
2022-12-23T13:21:15.929Z,99466.80
2022-12-23T13:23:06.240Z,99463.00
2022-12-23T13:24:53.059Z,99461.80
2022-12-23T13:26:49.849Z,99455.80
2022-12-23T13:28:43.592Z,99452.20
2022-12-23T13:30:20.269Z,99450.20
2022-12-23T13:32:25.740Z,99444.20
2022-12-23T13:34:35.867Z,99437.60
2022-12-23T13:37:13.306Z,99427.80
2022-12-23T13:39:20.847Z,99403.40
2022-12-23T13:41:29.118Z,99402.80
2022-12-23T13:43:22.615Z,99398.80
2022-12-23T13:44:58.028Z,99393.80
2022-12-23T13:46:57.859Z,99392.00
2022-12-23T13:48:59.650Z,99395.60
2022-12-23T13:51:07.899Z,99390.80
2022-12-23T13:53:14.663Z,99377.60
2022-12-23T13:55:36.673Z,99371.40
2022-12-23T13:57:25.117Z,99360.40
2022-12-23T13:58:58.573Z,99350.40
2022-12-23T14:00:35.250Z,99345.40
2022-12-23T14:02:36.000Z,99348.00
2022-12-23T14:04:33.045Z,99351.80
2022-12-23T14:06:23.565Z,99344.40
2022-12-23T14:07:58.628Z,99335.40
2022-12-23T14:09:38.288Z,99330.00
2022-12-23T14:11:22.095Z,99333.60
2022-12-23T14:13:03.724Z,99324.60
2022-12-23T14:14:46.614Z,99316.00
2022-12-23T14:16:21.664Z,99327.00
2022-12-23T14:18:08.646Z,99328.00
2022-12-23T14:20:27.892Z,99322.00
2022-12-23T14:22:33.507Z,99317.20
2022-12-23T14:24:48.962Z,99314.60
2022-12-23T14:27:02.313Z,99308.80
2022-12-23T14:29:34.830Z,99297.00
2022-12-23T14:31:35.784Z,99292.20
2022-12-23T14:33:34.532Z,99287.80
2022-12-23T14:35:35.425Z,99285.20
2022-12-23T14:37:24.202Z,99283.60
2022-12-23T14:39:11.168Z,99287.00
2022-12-23T14:40:43.009Z,99283.80
2022-12-23T14:42:43.678Z,99286.60
2022-12-23T14:44:37.289Z,99282.00
2022-12-23T14:46:34.351Z,99266.00
2022-12-23T14:48:34.589Z,99272.20
2022-12-23T14:50:54.450Z,99268.20
2022-12-23T14:52:39.295Z,99258.00
2022-12-23T14:54:17.827Z,99261.60
2022-12-23T14:56:09.997Z,99257.20
2022-12-23T14:57:43.322Z,99256.00
2022-12-23T14:59:38.902Z,99257.40
2022-12-23T15:01:18.458Z,99261.80
2022-12-23T15:02:58.234Z,99255.00
2022-12-23T15:05:13.757Z,99236.60
2022-12-23T15:07:03.235Z,99214.20
2022-12-23T15:08:43.628Z,99219.20
2022-12-23T15:10:23.210Z,99217.40
2022-12-23T15:12:00.262Z,99236.40
2022-12-23T15:13:34.747Z,99247.60
2022-12-23T15:15:21.592Z,99238.60
2022-12-23T15:16:53.362Z,99234.00
2022-12-23T15:18:25.631Z,99227.40
2022-12-23T15:20:09.902Z,99231.60
2022-12-23T15:21:43.181Z,99220.80
2022-12-23T15:23:17.624Z,99217.60
2022-12-23T15:24:49.557Z,99211.00
2022-12-23T15:26:27.596Z,99209.60
2022-12-23T15:28:03.416Z,99200.20
2022-12-23T15:49:28.415Z,99209.60
2022-12-23T15:53:37.180Z,99199.80
2022-12-23T15:55:21.490Z,99198.60
2022-12-23T15:56:54.615Z,99191.40
2022-12-23T15:58:29.574Z,99191.80
2022-12-23T16:00:02.072Z,99191.80
2022-12-23T16:01:44.376Z,99193.20
2022-12-23T16:03:38.391Z,99195.80
2022-12-23T16:05:10.294Z,99196.60
2022-12-23T16:06:50.545Z,99198.80
2022-12-23T16:08:30.263Z,99199.80
2022-12-23T16:10:15.437Z,99188.00
2022-12-23T16:12:25.912Z,99188.20
2022-12-23T16:14:24.670Z,99189.20
2022-12-23T16:16:34.526Z,99183.00
2022-12-23T16:18:24.368Z,99194.00
2022-12-23T16:20:26.334Z,99197.40
2022-12-23T16:21:58.158Z,99188.80
2022-12-23T16:23:34.837Z,99193.20
2022-12-23T16:25:28.115Z,99191.40
2022-12-23T16:27:00.057Z,99195.20
2022-12-23T16:28:51.495Z,99200.60
2022-12-23T16:30:31.618Z,99196.80
2022-12-23T16:32:03.512Z,99199.80
2022-12-23T16:33:41.827Z,99197.00
2022-12-23T16:35:27.905Z,99197.40
2022-12-23T16:36:59.716Z,99196.00
2022-12-23T16:38:31.456Z,99198.20
2022-12-23T16:40:15.272Z,99193.80
2022-12-23T16:41:48.176Z,99203.80
2022-12-23T16:43:23.431Z,99201.00
2022-12-23T16:44:55.167Z,99202.00
2022-12-23T16:46:28.604Z,99207.20
2022-12-23T16:48:02.978Z,99210.20
2022-12-23T16:49:37.520Z,99206.60
2022-12-23T16:51:16.932Z,99218.60
2022-12-23T16:52:48.682Z,99214.40
2022-12-23T16:54:20.875Z,99213.60
2022-12-23T16:55:58.526Z,99221.00
2022-12-23T16:57:33.077Z,99226.40
2022-12-23T16:59:05.711Z,99225.60
2022-12-23T17:00:42.713Z,99233.00
2022-12-23T17:02:22.488Z,99232.00
2022-12-23T17:03:55.974Z,99230.80
2022-12-23T17:05:27.921Z,99226.80
2022-12-23T17:06:59.667Z,99231.80
2022-12-23T17:08:31.515Z,99226.00
2022-12-23T17:10:03.905Z,99230.40
2022-12-23T17:11:45.111Z,99227.00
2022-12-23T17:13:19.005Z,99220.20
2022-12-23T17:14:50.799Z,99215.20
2022-12-23T17:16:24.512Z,99224.40
2022-12-23T17:17:56.830Z,99223.60
2022-12-23T17:19:29.593Z,99227.00
2022-12-23T17:21:01.694Z,99231.40
2022-12-23T17:22:35.684Z,99242.20
2022-12-23T17:24:13.175Z,99237.20
2022-12-23T17:25:44.996Z,99241.80
2022-12-23T17:27:20.869Z,99247.40
2022-12-23T17:28:52.650Z,99242.20
2022-12-23T17:30:25.512Z,99242.20
2022-12-23T17:31:57.367Z,99239.20
2022-12-23T17:33:32.334Z,99247.40
2022-12-23T17:35:04.413Z,99235.60
2022-12-23T17:36:36.261Z,99250.20
2022-12-23T17:38:17.996Z,99254.20
2022-12-23T17:39:49.783Z,99264.80
2022-12-23T17:41:32.189Z,99273.00
2022-12-23T17:43:03.954Z,99264.80
2022-12-23T17:44:35.645Z,99269.60
2022-12-23T17:46:14.442Z,99267.60
2022-12-23T17:47:46.312Z,99285.00
2022-12-23T17:49:18.126Z,99283.00
2022-12-23T17:50:50.022Z,99281.20
2022-12-23T17:52:24.187Z,99296.00
2022-12-23T17:53:58.176Z,99288.40
2022-12-23T17:55:30.315Z,99296.20
2022-12-23T17:57:02.012Z,99296.00
2022-12-23T17:58:33.694Z,99300.00
2022-12-23T18:00:06.499Z,99300.60
2022-12-23T18:01:48.018Z,99293.80
2022-12-23T18:03:23.820Z,99296.00
2022-12-23T18:04:55.522Z,99306.80
2022-12-23T18:06:29.454Z,99310.40
2022-12-23T18:08:03.048Z,99308.80
2022-12-23T18:09:34.817Z,99315.60
2022-12-23T18:11:07.721Z,99310.60
2022-12-23T18:12:42.679Z,99313.80
2022-12-23T18:14:20.848Z,99308.60
2022-12-23T18:15:52.613Z,99317.20
2022-12-23T18:17:24.433Z,99316.00
2022-12-23T18:18:57.110Z,99321.00
2022-12-23T18:20:29.037Z,99325.60
2022-12-23T18:22:01.868Z,99322.40
2022-12-23T18:23:37.124Z,99326.20
2022-12-23T18:25:22.490Z,99327.00
2022-12-23T18:26:54.366Z,99322.60
2022-12-23T18:28:28.255Z,99327.60
2022-12-23T18:29:59.946Z,99328.40
2022-12-23T18:31:32.455Z,99335.00
2022-12-23T18:33:06.719Z,99337.00
2022-12-23T18:34:38.554Z,99337.80
2022-12-23T18:36:23.250Z,99335.40
2022-12-23T18:37:56.404Z,99333.00
2022-12-23T18:39:28.208Z,99334.40
2022-12-23T18:41:00.016Z,99332.60
2022-12-23T18:42:31.803Z,99325.20
2022-12-23T18:44:03.667Z,99337.60
2022-12-23T18:45:49.145Z,99336.60
2022-12-23T18:47:24.037Z,99340.40
2022-12-23T18:48:55.868Z,99347.20
2022-12-23T18:50:29.144Z,99342.80
2022-12-23T18:52:12.343Z,99342.40
2022-12-23T18:53:45.802Z,99347.40
2022-12-23T18:55:18.416Z,99352.20
2022-12-23T18:56:50.247Z,99352.40
2022-12-23T18:58:23.032Z,99357.80
2022-12-23T18:59:54.808Z,99363.60
2022-12-23T19:01:26.576Z,99372.80
2022-12-23T19:02:58.539Z,99375.40
2022-12-23T19:04:30.290Z,99379.60
2022-12-23T19:06:07.535Z,99382.40
2022-12-23T19:07:39.249Z,99383.60
2022-12-23T19:09:18.047Z,99390.40
2022-12-23T19:13:17.697Z,99398.40
2022-12-23T19:14:50.934Z,99398.60
2022-12-23T19:16:23.983Z,99403.60
2022-12-23T19:17:56.000Z,99410.00
2022-12-23T19:19:30.146Z,99412.20
2022-12-23T19:21:09.561Z,99416.60
2022-12-23T19:22:43.764Z,99407.80
2022-12-23T19:24:21.190Z,99413.80
2022-12-23T19:25:55.460Z,99416.40
2022-12-23T19:27:31.571Z,99408.00
2022-12-23T19:29:06.179Z,99420.00
2022-12-23T19:30:42.164Z,99415.40
2022-12-23T19:32:15.065Z,99412.00
2022-12-23T19:33:50.884Z,99414.20
2022-12-23T19:35:28.328Z,99414.20
2022-12-23T19:37:01.723Z,99410.80
2022-12-23T19:38:36.790Z,99425.00
2022-12-23T19:40:12.067Z,99431.20
2022-12-23T19:41:48.268Z,99421.80
2022-12-23T19:43:21.174Z,99433.60
2022-12-23T19:44:53.456Z,99425.20
2022-12-23T19:46:25.777Z,99434.60
2022-12-23T19:47:59.670Z,99438.80
2022-12-23T19:49:33.735Z,99437.60
2022-12-23T19:51:12.201Z,99436.60
2022-12-23T19:52:46.071Z,99442.20
2022-12-23T19:54:23.801Z,99448.80
2022-12-23T19:56:23.050Z,99446.80
2022-12-23T19:58:01.401Z,99446.60
2022-12-23T19:59:35.338Z,99447.80
2022-12-23T20:01:20.786Z,99453.80